Time;durP1;ratioP1;P1;durP2;ratioP2;P2;SDS_P1;SDS_P2;PMS_P1;PMS_P2;Temp;Humidity;BMP_temperature;BMP_pressure;BME280_temperature;BME280_humidity;BME280_pressure;Samples;Min_cycle;Max_cycle;Signal;HPM_P1;HPM_P2
2022/04/24 00:02:03;;;;;;;24.10;13.65;;;11.90;99.90;;;;;;5070368;28;20052;-77
2022/04/24 00:04:30;;;;;;;31.52;14.35;;;11.80;99.90;;;;;;5074157;28;20412;-77
2022/04/24 00:06:57;;;;;;;27.65;14.07;;;11.90;99.90;;;;;;5090021;28;20044;-77
2022/04/24 00:09:24;;;;;;;29.33;14.57;;;11.80;99.90;;;;;;5068996;28;20040;-75
2022/04/24 00:11:51;;;;;;;24.38;13.50;;;11.80;99.90;;;;;;5074648;28;20052;-77
2022/04/24 00:14:19;;;;;;;26.77;14.57;;;11.80;99.90;;;;;;5073565;28;20044;-77
2022/04/24 00:16:46;;;;;;;36.15;15.35;;;11.80;99.90;;;;;;5073704;28;20045;-78
2022/04/24 00:19:15;;;;;;;28.30;13.35;;;11.80;99.90;;;;;;5073673;28;20052;-77
2022/04/24 00:21:43;;;;;;;22.38;13.55;;;11.80;99.90;;;;;;5073872;28;20067;-77
2022/04/24 00:24:10;;;;;;;22.83;13.50;;;11.80;99.90;;;;;;5074625;28;20040;-76
2022/04/24 00:26:38;;;;;;;30.10;14.07;;;11.80;99.90;;;;;;5073165;28;20040;-76
2022/04/24 00:29:05;;;;;;;28.30;14.40;;;11.80;99.90;;;;;;5074096;28;20055;-77
2022/04/24 00:31:32;;;;;;;27.13;14.18;;;11.80;99.90;;;;;;5073431;28;20500;-77
2022/04/24 00:34:02;;;;;;;24.40;13.95;;;11.70;99.90;;;;;;5074350;28;20059;-78
2022/04/24 00:36:30;;;;;;;32.00;14.35;;;11.80;99.90;;;;;;5072178;28;20055;-79
2022/04/24 00:38:57;;;;;;;26.58;15.05;;;11.80;99.90;;;;;;5072465;28;20047;-77
2022/04/24 00:41:24;;;;;;;28.77;15.18;;;11.80;99.90;;;;;;5071366;28;20044;-78
2022/04/24 00:43:54;;;;;;;27.08;13.88;;;11.80;99.90;;;;;;5073374;28;20056;-77
2022/04/24 00:46:40;;;;;;;25.67;14.05;;;11.80;99.90;;;;;;5074157;28;20059;-78
2022/04/24 00:49:09;;;;;;;25.60;14.18;;;11.70;99.90;;;;;;5073626;28;20045;-76
2022/04/24 00:51:37;;;;;;;26.92;14.77;;;11.70;99.90;;;;;;5073557;28;20052;-77
2022/04/24 00:54:06;;;;;;;22.00;13.13;;;11.70;99.90;;;;;;5073011;28;20471;-74
2022/04/24 00:56:34;;;;;;;29.43;14.93;;;11.70;99.90;;;;;;5065048;28;20438;-76
2022/04/24 00:59:03;;;;;;;23.23;13.27;;;11.70;99.90;;;;;;5073662;28;20285;-77
2022/04/24 01:01:30;;;;;;;23.13;13.77;;;11.60;99.90;;;;;;5073690;28;20045;-76
2022/04/24 01:04:02;;;;;;;21.48;13.77;;;11.60;99.90;;;;;;5072610;28;20067;-77
2022/04/24 01:06:32;;;;;;;33.30;14.07;;;11.60;99.90;;;;;;5074173;28;20044;-78
2022/04/24 01:09:12;;;;;;;27.15;14.15;;;11.50;99.90;;;;;;5072022;28;20055;-76
2022/04/24 01:11:40;;;;;;;27.30;15.05;;;11.50;99.90;;;;;;5069697;28;20502;-77
2022/04/24 01:14:09;;;;;;;22.83;13.20;;;11.40;99.90;;;;;;5076042;28;20041;-76
2022/04/24 01:16:37;;;;;;;28.83;13.35;;;11.30;99.90;;;;;;5074318;28;20052;-75
2022/04/24 01:19:08;;;;;;;30.10;14.15;;;11.30;99.90;;;;;;5073938;28;20088;-77
2022/04/24 01:21:35;;;;;;;35.67;14.30;;;11.30;99.90;;;;;;5072835;28;20044;-77
2022/04/24 01:24:06;;;;;;;22.83;12.88;;;11.20;99.90;;;;;;5072464;28;20044;-77
2022/04/24 01:26:34;;;;;;;29.85;14.13;;;11.20;99.90;;;;;;5072004;28;20045;-76
2022/04/24 01:29:01;;;;;;;28.55;13.10;;;11.20;99.90;;;;;;5071918;28;20052;-78
2022/04/24 01:31:28;;;;;;;36.35;14.25;;;11.10;99.90;;;;;;5072485;28;20430;-77
2022/04/24 01:33:55;;;;;;;27.40;14.23;;;11.10;99.90;;;;;;5072045;28;20075;-77
2022/04/24 01:36:22;;;;;;;31.77;14.43;;;11.00;99.90;;;;;;5055720;28;20067;-77
2022/04/24 01:38:49;;;;;;;22.33;14.30;;;10.90;99.90;;;;;;5071965;28;20503;-78
2022/04/24 01:41:16;;;;;;;28.73;13.27;;;10.90;99.90;;;;;;5073248;28;20056;-71
2022/04/24 01:43:46;;;;;;;22.83;13.63;;;10.80;99.90;;;;;;5071729;28;20045;-74
2022/04/24 01:46:14;;;;;;;21.92;13.45;;;10.80;99.90;;;;;;5073262;28;20052;-77
2022/04/24 01:48:41;;;;;;;27.83;13.77;;;10.70;99.90;;;;;;5072667;28;20082;-78
2022/04/24 01:51:08;;;;;;;24.90;14.32;;;10.60;99.90;;;;;;5072681;28;20055;-77
2022/04/24 01:53:35;;;;;;;26.42;13.10;;;10.60;99.90;;;;;;5069532;28;20045;-77
2022/04/24 01:56:04;;;;;;;25.83;14.63;;;10.60;99.90;;;;;;5071761;28;20052;-76
2022/04/24 01:58:31;;;;;;;39.72;16.60;;;10.60;99.90;;;;;;5070993;28;20057;-77
2022/04/24 02:00:58;;;;;;;32.13;14.02;;;10.50;99.90;;;;;;5072950;28;20048;-78
2022/04/24 02:03:26;;;;;;;26.55;13.73;;;10.40;99.90;;;;;;5071538;28;20510;-78
2022/04/24 02:05:53;;;;;;;24.40;15.13;;;10.40;99.90;;;;;;5055776;28;20051;-78
2022/04/24 02:08:20;;;;;;;28.88;14.00;;;10.30;99.90;;;;;;5071862;28;20102;-76
2022/04/24 02:10:47;;;;;;;25.98;14.18;;;10.20;99.90;;;;;;5071305;28;20044;-71
2022/04/24 02:13:14;;;;;;;26.90;13.98;;;10.20;99.90;;;;;;5071226;28;20047;-75
2022/04/24 02:15:43;;;;;;;24.38;14.23;;;10.20;99.90;;;;;;5071206;28;20403;-77
2022/04/24 02:18:10;;;;;;;27.67;16.38;;;10.10;99.90;;;;;;5071359;28;20048;-76
2022/04/24 02:20:36;;;;;;;25.38;13.52;;;10.10;99.90;;;;;;5072935;28;20040;-77
2022/04/24 02:23:03;;;;;;;31.88;16.05;;;10.00;99.90;;;;;;5072512;28;20040;-78
2022/04/24 02:25:30;;;;;;;26.50;15.23;;;10.00;99.90;;;;;;5069428;28;20044;-77
2022/04/24 02:27:57;;;;;;;31.15;13.32;;;9.90;99.90;;;;;;5071627;28;20041;-76
2022/04/24 02:30:26;;;;;;;26.92;13.88;;;10.00;99.90;;;;;;5068667;28;20055;-75
2022/04/24 02:32:54;;;;;;;27.27;15.27;;;9.90;99.90;;;;;;5069011;28;20052;-76
2022/04/24 02:35:22;;;;;;;32.90;14.35;;;9.90;99.90;;;;;;5044723;28;20057;-77
2022/04/24 02:37:49;;;;;;;27.38;14.20;;;9.80;99.90;;;;;;5056911;28;20048;-73
2022/04/24 02:40:21;;;;;;;28.95;15.05;;;9.80;99.90;;;;;;5069638;28;20053;-72
2022/04/24 02:42:52;;;;;;;24.58;14.80;;;9.80;99.90;;;;;;5071617;28;20051;-77
2022/04/24 02:45:19;;;;;;;26.88;14.45;;;9.70;99.90;;;;;;5070568;28;20052;-78
2022/04/24 02:47:46;;;;;;;27.55;14.60;;;9.70;99.90;;;;;;5069712;28;20036;-77
2022/04/24 02:50:14;;;;;;;31.73;14.52;;;9.70;99.90;;;;;;5068681;28;20056;-77
2022/04/24 02:52:51;;;;;;;28.83;14.15;;;9.70;99.90;;;;;;5070146;28;20054;-78
2022/04/24 02:55:18;;;;;;;31.92;16.17;;;9.60;99.90;;;;;;5070211;28;20055;-77
2022/04/24 02:57:46;;;;;;;27.08;15.50;;;9.60;99.90;;;;;;5071215;28;20049;-78
2022/04/24 03:00:19;;;;;;;28.48;15.57;;;9.60;99.90;;;;;;5071068;28;20055;-78
2022/04/24 03:02:46;;;;;;;30.00;15.65;;;9.60;99.90;;;;;;5071330;28;20464;-80
2022/04/24 03:05:16;;;;;;;26.88;14.02;;;9.60;99.90;;;;;;5070617;28;20052;-81
2022/04/24 03:07:43;;;;;;;34.95;15.38;;;9.50;99.90;;;;;;5053976;28;20226;-79
2022/04/24 03:10:10;;;;;;;28.60;14.88;;;9.50;99.90;;;;;;5070962;28;20041;-79
2022/04/24 03:12:37;;;;;;;25.65;14.50;;;9.40;99.90;;;;;;5071993;28;20048;-81
2022/04/24 03:15:05;;;;;;;34.35;16.65;;;9.40;99.90;;;;;;5074043;28;20048;-78
2022/04/24 03:17:34;;;;;;;28.90;15.45;;;9.40;99.90;;;;;;5071744;28;20518;-76
2022/04/24 03:20:03;;;;;;;32.83;15.00;;;9.40;99.90;;;;;;5071925;28;20041;-78
2022/04/24 03:22:33;;;;;;;31.10;13.45;;;9.40;99.90;;;;;;5069715;28;20052;-76
2022/04/24 03:25:01;;;;;;;28.23;15.10;;;9.40;99.90;;;;;;5071192;28;20048;-77
2022/04/24 03:27:28;;;;;;;26.80;13.77;;;9.40;99.90;;;;;;5052645;28;20047;-78
2022/04/24 03:29:55;;;;;;;33.22;15.05;;;9.40;99.90;;;;;;5070704;28;20502;-78
2022/04/24 03:32:22;;;;;;;34.13;14.80;;;9.30;99.90;;;;;;5070597;28;20041;-76
2022/04/24 03:34:50;;;;;;;29.20;14.65;;;9.40;99.90;;;;;;5068352;28;20056;-78
2022/04/24 03:37:18;;;;;;;25.52;14.15;;;9.30;99.90;;;;;;5070098;28;20040;-77
2022/04/24 03:39:44;;;;;;;27.88;14.68;;;9.30;99.90;;;;;;5058191;28;20404;-77
2022/04/24 03:42:12;;;;;;;29.95;14.63;;;9.30;99.90;;;;;;5071021;28;20495;-78
2022/04/24 03:44:39;;;;;;;31.25;14.63;;;9.30;99.90;;;;;;5074038;28;20055;-76
2022/04/24 03:47:08;;;;;;;33.05;16.38;;;9.20;99.90;;;;;;5069060;28;20040;-77
2022/04/24 03:49:35;;;;;;;26.90;15.25;;;9.20;99.90;;;;;;5073838;28;20567;-76
2022/04/24 03:52:03;;;;;;;29.58;15.10;;;9.20;99.90;;;;;;5061701;28;20131;-77
2022/04/24 03:54:30;;;;;;;30.38;17.17;;;9.20;99.90;;;;;;5067988;28;20107;-75
2022/04/24 03:56:57;;;;;;;28.75;16.67;;;9.20;99.90;;;;;;5066061;28;20127;-73
2022/04/24 03:59:24;;;;;;;36.83;17.73;;;9.10;99.90;;;;;;5075235;28;20049;-75
2022/04/24 04:01:51;;;;;;;31.75;14.98;;;9.10;99.90;;;;;;5065730;28;20059;-75
2022/04/24 04:04:18;;;;;;;30.70;15.75;;;9.10;99.90;;;;;;5066539;28;20045;-76
2022/04/24 04:06:45;;;;;;;29.80;15.07;;;9.10;99.90;;;;;;5075353;28;20040;-76
2022/04/24 04:09:12;;;;;;;31.10;15.85;;;9.10;99.90;;;;;;5067555;28;20041;-77
2022/04/24 04:11:39;;;;;;;23.35;15.15;;;9.10;99.90;;;;;;5073553;28;20045;-76
2022/04/24 04:14:06;;;;;;;27.08;15.68;;;9.00;99.90;;;;;;5068828;28;20041;-76
2022/04/24 04:16:33;;;;;;;32.63;16.85;;;9.00;99.90;;;;;;5084748;28;20057;-76
2022/04/24 04:19:00;;;;;;;37.72;17.27;;;9.00;99.90;;;;;;5066781;28;20372;-75
2022/04/24 04:21:27;;;;;;;33.63;16.48;;;8.90;99.90;;;;;;5067799;28;20048;-76
2022/04/24 04:23:54;;;;;;;33.28;18.02;;;8.90;99.90;;;;;;5066444;28;20063;-76
2022/04/24 04:26:21;;;;;;;26.67;14.07;;;8.90;99.90;;;;;;5080907;28;20043;-77
2022/04/24 04:28:48;;;;;;;28.58;15.63;;;8.80;99.90;;;;;;5072280;28;20503;-76
2022/04/24 04:31:15;;;;;;;31.70;17.48;;;8.80;99.90;;;;;;5082173;28;20051;-76
2022/04/24 04:33:42;;;;;;;33.42;17.17;;;8.80;99.90;;;;;;5072242;28;20072;-76
2022/04/24 04:36:10;;;;;;;28.95;15.98;;;8.80;99.90;;;;;;5063099;28;20048;-76
2022/04/24 04:38:37;;;;;;;31.67;18.15;;;8.70;99.90;;;;;;5068737;28;20480;-77
2022/04/24 04:41:04;;;;;;;40.78;20.05;;;8.70;99.90;;;;;;5073323;28;20048;-69
2022/04/24 04:43:33;;;;;;;34.10;18.95;;;8.70;99.90;;;;;;5073855;28;20091;-75
2022/04/24 04:46:02;;;;;;;37.20;18.05;;;8.70;99.90;;;;;;5073639;28;20047;-75
2022/04/24 04:48:33;;;;;;;29.25;18.20;;;8.70;99.90;;;;;;5073477;28;20399;-74
2022/04/24 04:51:03;;;;;;;32.17;19.40;;;8.70;99.90;;;;;;5075539;28;20097;-73
2022/04/24 04:53:34;;;;;;;35.63;18.33;;;8.80;99.90;;;;;;5057998;28;20052;-77
2022/04/24 04:56:01;;;;;;;30.80;17.80;;;8.70;99.90;;;;;;5072919;28;20102;-76
2022/04/24 04:58:28;;;;;;;32.70;18.08;;;8.80;99.90;;;;;;5072607;28;20048;-76
2022/04/24 05:00:55;;;;;;;33.60;19.77;;;8.80;99.90;;;;;;5075050;28;20056;-75
2022/04/24 05:03:22;;;;;;;35.08;18.90;;;8.80;99.90;;;;;;5074425;28;20559;-76
2022/04/24 05:05:52;;;;;;;31.45;17.75;;;8.80;99.90;;;;;;5074452;28;20397;-74
2022/04/24 05:08:19;;;;;;;35.38;17.13;;;8.80;99.90;;;;;;5073700;28;20059;-73
2022/04/24 05:10:49;;;;;;;36.72;18.67;;;8.80;99.90;;;;;;5063765;28;20044;-73
2022/04/24 05:13:16;;;;;;;35.50;19.60;;;8.80;99.90;;;;;;5072762;28;20044;-73
2022/04/24 05:15:43;;;;;;;30.67;17.35;;;8.80;99.90;;;;;;5072458;28;20044;-73
2022/04/24 05:18:12;;;;;;;36.15;20.23;;;8.80;99.90;;;;;;5072771;28;20052;-74
2022/04/24 05:20:40;;;;;;;32.60;19.10;;;8.80;99.90;;;;;;5072790;28;20051;-75
2022/04/24 05:23:09;;;;;;;38.35;20.00;;;8.80;99.90;;;;;;5072288;28;20041;-75
2022/04/24 05:25:36;;;;;;;34.50;18.98;;;8.90;99.90;;;;;;5055763;28;20384;-75
2022/04/24 05:28:03;;;;;;;34.05;19.02;;;8.90;99.90;;;;;;5073736;28;20422;-75
2022/04/24 05:30:30;;;;;;;38.95;19.38;;;8.90;99.90;;;;;;5070884;28;20052;-73
2022/04/24 05:33:09;;;;;;;36.60;18.95;;;8.90;99.90;;;;;;5070912;28;20504;-74
2022/04/24 05:35:36;;;;;;;35.42;20.50;;;9.00;99.90;;;;;;5073519;28;20056;-75
2022/04/24 05:38:03;;;;;;;35.58;19.90;;;9.00;99.90;;;;;;5071415;28;20044;-76
2022/04/24 05:40:30;;;;;;;40.13;19.70;;;9.00;99.90;;;;;;5071999;28;20048;-75
2022/04/24 05:42:57;;;;;;;32.83;19.20;;;9.10;99.90;;;;;;5071321;28;20485;-76
2022/04/24 05:45:24;;;;;;;30.08;18.17;;;9.10;99.90;;;;;;5071062;28;20050;-75
2022/04/24 05:47:54;;;;;;;33.43;18.33;;;9.20;99.90;;;;;;5072393;28;20052;-73
2022/04/24 05:50:23;;;;;;;28.45;17.75;;;9.30;99.90;;;;;;5071537;28;20120;-75
2022/04/24 05:52:53;;;;;;;36.30;18.87;;;9.40;99.90;;;;;;5071766;28;20476;-76
2022/04/24 05:55:19;;;;;;;34.55;20.20;;;9.50;99.90;;;;;;5069392;28;20040;-75
2022/04/24 05:57:49;;;;;;;36.13;19.25;;;9.60;99.90;;;;;;5070119;28;20063;-70
2022/04/24 06:00:16;;;;;;;;;;;9.70;99.90;;;;;;5070169;28;20395;-76
2022/04/24 06:02:49;;;;;;;33.63;18.10;;;9.70;99.90;;;;;;5071217;28;19928;-77
2022/04/24 06:05:16;;;;;;;31.75;17.35;;;9.70;99.90;;;;;;5073178;28;20041;-76
2022/04/24 06:07:43;;;;;;;36.55;20.05;;;9.80;99.90;;;;;;5072580;28;20049;-75
2022/04/24 06:10:11;;;;;;;37.30;18.83;;;9.80;99.90;;;;;;5069207;28;20043;-76
2022/04/24 06:12:51;;;;;;;40.45;20.70;;;9.90;99.90;;;;;;5071599;28;20052;-77
2022/04/24 06:15:21;;;;;;;32.45;18.92;;;9.90;99.90;;;;;;5071217;28;20048;-76
2022/04/24 06:17:52;;;;;;;34.38;20.02;;;10.00;99.90;;;;;;5072475;28;20185;-76
2022/04/24 06:20:20;;;;;;;28.75;17.17;;;10.10;99.90;;;;;;5071138;28;20044;-77
2022/04/24 06:22:57;;;;;;;31.85;18.92;;;10.20;99.90;;;;;;5070965;28;20491;-76
2022/04/24 06:25:29;;;;;;;37.80;19.45;;;10.30;99.90;;;;;;5043326;28;20045;-75
2022/04/24 06:27:56;;;;;;;30.27;19.58;;;10.40;99.90;;;;;;5087993;28;20483;-75
2022/04/24 06:30:27;;;;;;;28.67;19.05;;;10.50;99.90;;;;;;5070982;28;20040;-75
2022/04/24 06:32:55;;;;;;;25.50;18.55;;;10.70;99.90;;;;;;5070294;28;20127;-76
2022/04/24 06:35:24;;;;;;;35.85;18.55;;;10.80;99.90;;;;;;5065358;28;20410;-76
2022/04/24 06:37:55;;;;;;;28.85;18.30;;;10.90;99.90;;;;;;5063872;28;20044;-75
2022/04/24 06:40:23;;;;;;;30.42;18.77;;;11.00;99.90;;;;;;5066123;28;20047;-78
2022/04/24 06:42:55;;;;;;;37.80;20.15;;;11.00;99.90;;;;;;5057112;28;20067;-77
2022/04/24 06:45:29;;;;;;;27.85;17.25;;;11.10;99.90;;;;;;5055328;28;20411;-78
2022/04/24 06:47:57;;;;;;;28.35;18.17;;;11.20;99.90;;;;;;5069933;28;20056;-76
2022/04/24 06:50:25;;;;;;;33.97;19.27;;;11.20;99.90;;;;;;5087194;28;20052;-73
2022/04/24 06:53:03;;;;;;;34.40;18.30;;;11.20;99.90;;;;;;5089145;28;20068;-77
2022/04/24 06:55:32;;;;;;;32.83;18.30;;;11.20;99.90;;;;;;5082401;28;20049;-77
2022/04/24 06:57:59;;;;;;;29.17;18.13;;;11.30;99.90;;;;;;5069436;28;20052;-76
2022/04/24 07:00:27;;;;;;;25.88;17.23;;;11.30;99.90;;;;;;5057528;28;20045;-76
2022/04/24 07:03:20;;;;;;;26.25;17.17;;;11.40;99.90;;;;;;5067075;28;20052;-77
2022/04/24 07:05:49;;;;;;;24.30;18.15;;;11.50;99.90;;;;;;5073647;28;20048;-76
2022/04/24 07:08:16;;;;;;;30.75;18.33;;;11.50;99.90;;;;;;5071476;28;20045;-76
2022/04/24 07:10:43;;;;;;;28.20;16.90;;;11.60;99.90;;;;;;5077608;28;20044;-77
2022/04/24 07:13:09;;;;;;;29.10;16.25;;;11.70;99.90;;;;;;5080510;28;20041;-78
2022/04/24 07:15:38;;;;;;;29.40;18.25;;;11.70;99.90;;;;;;5075812;28;20131;-78
2022/04/24 07:18:06;;;;;;;30.73;18.13;;;11.80;99.90;;;;;;5074434;28;20135;-73
2022/04/24 07:20:33;;;;;;;27.92;16.65;;;11.90;99.90;;;;;;5073590;28;20048;-78
2022/04/24 07:23:01;;;;;;;27.08;16.42;;;12.00;99.90;;;;;;5069802;28;20044;-79
2022/04/24 07:25:39;;;;;;;25.75;15.32;;;12.00;99.90;;;;;;5072298;28;20235;-78
2022/04/24 07:28:06;;;;;;;25.67;15.77;;;12.00;99.90;;;;;;5080165;28;20078;-73
2022/04/24 07:30:33;;;;;;;26.13;16.02;;;12.00;99.90;;;;;;5084483;28;20045;-78
2022/04/24 07:33:00;;;;;;;28.38;16.60;;;12.00;99.90;;;;;;5067863;28;20185;-75
2022/04/24 07:35:29;;;;;;;32.70;16.83;;;12.10;99.90;;;;;;5073003;28;20068;-72
2022/04/24 07:37:56;;;;;;;36.20;24.08;;;12.10;99.90;;;;;;5064473;28;20048;-65
2022/04/24 07:40:24;;;;;;;30.73;20.60;;;12.10;99.90;;;;;;5068421;28;20067;-73
2022/04/24 07:42:56;;;;;;;27.00;16.87;;;12.30;99.90;;;;;;5082355;28;20043;-73
2022/04/24 07:45:38;;;;;;;22.27;16.70;;;12.40;99.90;;;;;;5066689;28;20480;-73
2022/04/24 07:48:08;;;;;;;23.08;15.90;;;12.50;99.90;;;;;;5066597;28;20495;-73
2022/04/24 07:50:36;;;;;;;21.20;15.52;;;12.50;99.90;;;;;;5058295;28;20044;-73
2022/04/24 07:53:03;;;;;;;26.02;15.68;;;12.50;99.90;;;;;;5053108;28;20491;-74
2022/04/24 07:55:30;;;;;;;22.67;16.58;;;12.60;99.90;;;;;;5057700;28;20045;-73
2022/04/24 07:57:57;;;;;;;24.52;15.77;;;12.70;99.90;;;;;;5069468;28;20078;-73
2022/04/24 08:00:26;;;;;;;27.50;15.88;;;12.80;99.90;;;;;;5059697;28;20075;-72
2022/04/24 08:02:56;;;;;;;33.75;16.48;;;12.90;99.90;;;;;;5060022;28;20045;-72
2022/04/24 08:05:24;;;;;;;33.45;26.38;;;12.80;99.90;;;;;;5062018;28;20045;-72
2022/04/24 08:07:52;;;;;;;31.25;16.48;;;12.80;99.90;;;;;;5069923;28;20052;-72
2022/04/24 08:10:20;;;;;;;28.92;15.57;;;12.90;99.90;;;;;;5063029;28;20041;-71
2022/04/24 08:12:47;;;;;;;26.55;16.15;;;12.90;99.90;;;;;;5052882;28;20136;-71
2022/04/24 08:15:15;;;;;;;33.22;15.30;;;12.90;99.90;;;;;;5069589;28;20045;-72
2022/04/24 08:17:42;;;;;;;24.58;14.73;;;12.90;99.90;;;;;;5069435;28;20515;-73
2022/04/24 08:20:09;;;;;;;23.60;15.20;;;12.90;99.90;;;;;;5058726;28;20063;-72
2022/04/24 08:22:41;;;;;;;23.17;14.68;;;12.90;99.90;;;;;;5063650;28;20090;-72
2022/04/24 08:25:09;;;;;;;26.58;15.57;;;13.00;99.90;;;;;;5064865;28;20045;-72
2022/04/24 08:27:37;;;;;;;29.42;15.63;;;13.10;99.90;;;;;;5053157;28;20175;-72
2022/04/24 08:30:08;;;;;;;24.00;14.02;;;13.20;99.90;;;;;;5081369;28;20064;-72
2022/04/24 08:32:36;;;;;;;25.63;14.90;;;13.30;99.90;;;;;;5070350;28;20052;-72
2022/04/24 08:35:04;;;;;;;31.60;15.55;;;13.30;99.90;;;;;;5066493;28;20106;-74
2022/04/24 08:37:31;;;;;;;24.45;13.82;;;13.40;99.90;;;;;;5060329;28;20404;-74
2022/04/24 08:39:58;;;;;;;22.90;13.07;;;13.40;99.90;;;;;;5065927;28;20057;-74
2022/04/24 08:42:27;;;;;;;25.92;13.75;;;13.40;99.90;;;;;;5062532;28;20140;-74
2022/04/24 08:44:56;;;;;;;22.33;13.38;;;13.40;99.90;;;;;;5071096;28;20052;-74
2022/04/24 08:47:24;;;;;;;20.20;13.57;;;13.50;99.90;;;;;;5064231;28;20492;-74
2022/04/24 08:49:55;;;;;;;19.10;13.10;;;13.60;99.90;;;;;;5060846;28;20066;-73
2022/04/24 08:52:22;;;;;;;16.98;12.75;;;13.70;99.90;;;;;;5066757;28;20400;-73
2022/04/24 08:54:50;;;;;;;43.30;28.20;;;13.80;99.90;;;;;;5079859;28;20123;-73
2022/04/24 08:57:18;;;;;;;22.38;14.23;;;13.90;99.90;;;;;;5055821;28;20051;-74
2022/04/24 08:59:46;;;;;;;22.83;12.90;;;14.10;99.90;;;;;;5043136;28;20090;-74
2022/04/24 09:02:34;;;;;;;22.85;13.65;;;14.10;99.90;;;;;;5071558;28;20056;-75
2022/04/24 09:05:03;;;;;;;20.90;11.93;;;14.10;99.90;;;;;;5072575;28;20044;-74
2022/04/24 09:07:33;;;;;;;20.70;11.52;;;14.20;99.90;;;;;;5066416;28;20101;-73
2022/04/24 09:10:03;;;;;;;22.63;11.93;;;14.30;99.90;;;;;;5072291;28;20055;-70
2022/04/24 09:12:31;;;;;;;21.05;11.07;;;14.40;99.90;;;;;;5069871;28;20052;-73
2022/04/24 09:14:58;;;;;;;19.20;11.45;;;14.40;99.90;;;;;;5068009;28;20407;-71
2022/04/24 09:17:26;;;;;;;18.90;11.73;;;14.40;99.90;;;;;;5070443;28;20058;-70
2022/04/24 09:19:54;;;;;;;19.40;11.80;;;14.50;99.90;;;;;;5069728;28;20477;-71
2022/04/24 09:22:22;;;;;;;17.65;10.30;;;14.60;99.90;;;;;;5059949;28;20052;-70
2022/04/24 09:24:59;;;;;;;18.80;10.77;;;14.70;99.90;;;;;;5080426;28;20049;-78
2022/04/24 09:27:27;;;;;;;19.15;12.45;;;14.80;99.90;;;;;;5048606;28;20057;-75
2022/04/24 09:29:55;;;;;;;27.83;19.02;;;15.00;99.90;;;;;;5068042;28;20491;-66
2022/04/24 09:32:23;;;;;;;29.17;17.17;;;15.00;99.90;;;;;;5068845;28;20059;-67
2022/04/24 09:34:51;;;;;;;18.65;10.98;;;15.10;99.90;;;;;;5072630;28;20065;-68
2022/04/24 09:37:18;;;;;;;19.38;10.68;;;15.10;99.90;;;;;;5071856;28;20040;-67
2022/04/24 09:39:45;;;;;;;19.38;12.13;;;15.20;99.90;;;;;;5073363;28;20135;-82
2022/04/24 09:42:14;;;;;;;21.63;10.82;;;15.20;98.60;;;;;;5072038;28;20047;-85
2022/04/24 09:44:47;;;;;;;17.00;9.93;;;15.20;98.50;;;;;;5068536;28;20043;-75
2022/04/24 09:47:34;;;;;;;19.10;10.32;;;15.30;98.60;;;;;;5085973;28;20094;-71
2022/04/24 09:50:02;;;;;;;18.30;9.75;;;15.30;96.60;;;;;;5062188;28;20052;-73
2022/04/24 09:52:29;;;;;;;17.42;10.60;;;15.40;96.80;;;;;;5071724;28;20049;-67
2022/04/24 09:54:56;;;;;;;19.50;12.45;;;15.50;98.60;;;;;;5071797;28;20049;-69
2022/04/24 09:57:24;;;;;;;18.15;10.85;;;15.60;97.50;;;;;;5070750;28;20052;-66
2022/04/24 09:59:51;;;;;;;25.15;16.98;;;15.50;95.40;;;;;;5069950;28;20044;-66
2022/04/24 10:02:18;;;;;;;17.35;10.27;;;15.50;95.40;;;;;;5072750;28;20403;-65
2022/04/24 10:04:46;;;;;;;18.48;10.07;;;15.60;93.80;;;;;;5070699;28;20055;-65
2022/04/24 10:07:15;;;;;;;18.85;9.70;;;15.70;92.40;;;;;;5071419;28;20518;-65
2022/04/24 10:09:44;;;;;;;17.95;9.52;;;15.70;92.00;;;;;;5088901;28;20052;-67
2022/04/24 10:12:20;;;;;;;15.90;10.05;;;15.80;92.70;;;;;;5087698;28;20049;-65
2022/04/24 10:14:55;;;;;;;14.93;9.52;;;15.90;92.50;;;;;;5070996;28;20037;-66
2022/04/24 10:17:59;;;;;;;16.15;10.52;;;15.90;92.00;;;;;;5071418;28;20050;-65
2022/04/24 10:20:48;;;;;;;19.50;10.18;;;15.90;91.40;;;;;;5071405;28;20514;-65
2022/04/24 10:23:25;;;;;;;14.05;9.60;;;16.00;92.00;;;;;;5072205;28;20048;-66
2022/04/24 10:25:52;;;;;;;12.55;9.55;;;16.10;92.20;;;;;;5070377;28;20122;-65
2022/04/24 10:28:20;;;;;;;14.15;8.23;;;16.30;91.10;;;;;;5070909;28;20045;-65
2022/04/24 10:31:00;;;;;;;14.00;9.55;;;16.30;89.30;;;;;;5072771;28;20151;-66
2022/04/24 10:33:28;;;;;;;16.90;9.57;;;16.30;86.90;;;;;;5067949;28;20048;-67
2022/04/24 10:36:00;;;;;;;15.70;10.63;;;16.30;87.10;;;;;;5069727;28;20053;-68
2022/04/24 10:38:28;;;;;;;13.85;10.27;;;16.30;90.30;;;;;;5070617;28;20044;-68
2022/04/24 10:41:06;;;;;;;15.93;9.23;;;16.30;88.60;;;;;;5071224;28;20045;-68
2022/04/24 10:43:48;;;;;;;13.82;8.88;;;16.40;86.20;;;;;;5070815;28;20055;-66
2022/04/24 10:46:19;;;;;;;14.50;9.45;;;16.50;84.90;;;;;;5071793;28;20041;-67
2022/04/24 10:48:49;;;;;;;14.00;8.73;;;16.40;82.10;;;;;;5071262;28;20110;-67
2022/04/24 10:51:29;;;;;;;12.25;8.88;;;16.30;81.70;;;;;;5070674;28;20522;-65
2022/04/24 10:53:58;;;;;;;40.90;32.40;;;16.20;82.10;;;;;;5070949;28;20415;-65
2022/04/24 10:56:32;;;;;;;14.05;9.93;;;16.30;85.40;;;;;;5070145;28;20052;-68
2022/04/24 10:59:10;;;;;;;12.05;8.40;;;16.40;84.60;;;;;;5068234;28;20065;-67
2022/04/24 11:01:38;;;;;;;14.38;8.25;;;16.60;82.60;;;;;;5084532;28;20059;-66
2022/04/24 11:04:06;;;;;;;13.03;8.30;;;16.70;77.90;;;;;;5071810;28;20491;-67
2022/04/24 11:06:33;;;;;;;12.13;7.80;;;16.70;75.00;;;;;;5071598;28;20037;-69
2022/04/24 11:09:12;;;;;;;10.60;7.07;;;16.60;73.70;;;;;;5070868;28;20041;-69
2022/04/24 11:11:58;;;;;;;12.98;7.60;;;16.80;72.50;;;;;;5070212;28;20048;-68
2022/04/24 11:14:26;;;;;;;19.02;7.68;;;17.00;73.30;;;;;;5070782;28;20041;-68
2022/04/24 11:16:56;;;;;;;13.27;8.15;;;17.20;74.90;;;;;;5072075;28;20403;-68
2022/04/24 11:19:28;;;;;;;13.63;8.77;;;17.00;71.80;;;;;;5070961;28;20047;-68
2022/04/24 11:21:59;;;;;;;10.70;8.18;;;17.10;71.20;;;;;;5053167;28;20509;-68
2022/04/24 11:24:27;;;;;;;12.57;7.55;;;17.10;71.30;;;;;;5084008;28;20045;-68
2022/04/24 11:26:55;;;;;;;11.73;8.00;;;17.00;72.50;;;;;;5055318;28;20110;-68
2022/04/24 11:29:22;;;;;;;9.18;7.32;;;17.00;72.20;;;;;;5082754;28;20289;-68
2022/04/24 11:31:53;;;;;;;10.68;8.05;;;17.00;72.50;;;;;;5067705;28;20048;-68
2022/04/24 11:34:21;;;;;;;12.30;7.25;;;16.90;69.70;;;;;;5052873;28;20128;-63
2022/04/24 11:36:49;;;;;;;10.70;8.48;;;16.70;70.10;;;;;;5069742;28;20064;-67
2022/04/24 11:39:17;;;;;;;9.52;7.72;;;16.70;71.00;;;;;;5068371;28;20049;-66
2022/04/24 11:41:46;;;;;;;12.50;7.43;;;16.90;70.40;;;;;;5071516;28;20123;-68
2022/04/24 11:50:14;;;;;;;11.60;7.72;;;17.20;69.30;;;;;;5053361;28;20278;-69
2022/04/24 11:53:00;;;;;;;11.05;7.38;;;17.40;65.80;;;;;;5069730;28;20048;-69
2022/04/24 11:56:01;;;;;;;10.68;7.30;;;17.40;67.60;;;;;;5071109;28;20455;-68
2022/04/24 11:58:14;;;;;;;11.02;8.52;;;17.50;67.90;;;;;;5070223;28;20052;-67
2022/04/24 12:00:42;;;;;;;10.45;7.35;;;17.60;68.70;;;;;;5057277;28;20049;-68
2022/04/24 12:03:09;;;;;;;12.63;8.65;;;17.50;67.40;;;;;;5075755;28;20399;-69
2022/04/24 12:05:36;;;;;;;12.30;7.32;;;17.40;66.20;;;;;;5074034;28;20052;-68
2022/04/24 12:08:04;;;;;;;9.70;6.47;;;17.50;65.80;;;;;;5073944;28;20048;-68
2022/04/24 12:10:31;;;;;;;10.40;7.00;;;17.60;64.90;;;;;;5067597;28;20499;-68
2022/04/24 12:13:05;;;;;;;8.93;6.30;;;17.70;66.50;;;;;;5073942;28;20698;-69
2022/04/24 12:15:32;;;;;;;28.52;24.70;;;17.70;63.70;;;;;;5073806;28;20123;-68
2022/04/24 12:17:59;;;;;;;18.58;16.67;;;17.90;64.60;;;;;;5074908;28;20043;-65
2022/04/24 12:20:38;;;;;;;23.70;19.05;;;17.90;65.50;;;;;;5074380;28;20052;-68
2022/04/24 12:23:11;;;;;;;13.30;8.20;;;17.80;63.10;;;;;;5072912;28;20143;-67
2022/04/24 12:25:55;;;;;;;9.07;7.00;;;17.80;65.20;;;;;;5074034;28;20457;-68
2022/04/24 12:28:39;;;;;;;10.43;7.28;;;17.80;66.20;;;;;;5074623;28;20556;-68
2022/04/24 12:31:06;;;;;;;11.63;7.80;;;18.00;65.30;;;;;;5073992;28;20045;-69
2022/04/24 12:33:45;;;;;;;11.70;7.05;;;17.80;65.30;;;;;;5073333;28;20059;-70
2022/04/24 12:36:15;;;;;;;8.13;6.47;;;17.70;64.60;;;;;;5074629;28;20064;-70
2022/04/24 12:38:55;;;;;;;8.68;5.90;;;17.50;64.00;;;;;;5076877;28;20048;-69
2022/04/24 12:41:27;;;;;;;7.00;5.35;;;17.60;64.30;;;;;;5090128;28;20063;-70
2022/04/24 12:43:54;;;;;;;9.02;5.93;;;17.60;61.30;;;;;;5074479;28;20476;-70
2022/04/24 12:46:21;;;;;;;11.00;7.65;;;17.70;63.10;;;;;;5072501;28;20047;-70
2022/04/24 12:48:49;;;;;;;10.40;6.90;;;18.00;63.30;;;;;;5064001;28;20119;-69
2022/04/24 12:51:17;;;;;;;10.43;7.60;;;18.00;62.50;;;;;;5089910;28;20044;-69